sensor_id;sensor_type;location;lat;lon;timestamp;P1;durP1;ratioP1;P2;durP2;ratioP2
11064;SDS011;5585;52.530;7.320;2024-02-14T00:00:47;5.30;;;3.83;;
11064;SDS011;5585;52.530;7.320;2024-02-14T00:03:15;5.10;;;3.37;;
11064;SDS011;5585;52.530;7.320;2024-02-14T00:05:41;4.83;;;3.47;;
11064;SDS011;5585;52.530;7.320;2024-02-14T00:08:08;4.83;;;3.70;;
11064;SDS011;5585;52.530;7.320;2024-02-14T00:10:34;6.13;;;3.77;;
11064;SDS011;5585;52.530;7.320;2024-02-14T00:13:01;4.87;;;3.67;;
11064;SDS011;5585;52.530;7.320;2024-02-14T00:15:28;4.43;;;3.70;;
11064;SDS011;5585;52.530;7.320;2024-02-14T00:17:54;5.13;;;3.80;;
11064;SDS011;5585;52.530;7.320;2024-02-14T00:20:22;4.10;;;3.70;;
11064;SDS011;5585;52.530;7.320;2024-02-14T00:22:49;4.23;;;3.63;;
11064;SDS011;5585;52.530;7.320;2024-02-14T00:25:16;4.90;;;3.90;;
11064;SDS011;5585;52.530;7.320;2024-02-14T00:27:42;4.97;;;4.03;;
11064;SDS011;5585;52.530;7.320;2024-02-14T00:30:09;4.27;;;3.87;;
11064;SDS011;5585;52.530;7.320;2024-02-14T00:32:36;8.13;;;4.53;;
11064;SDS011;5585;52.530;7.320;2024-02-14T00:35:03;6.17;;;4.67;;
11064;SDS011;5585;52.530;7.320;2024-02-14T00:37:30;7.50;;;4.57;;
11064;SDS011;5585;52.530;7.320;2024-02-14T00:39:58;6.70;;;4.87;;
11064;SDS011;5585;52.530;7.320;2024-02-14T00:42:25;5.33;;;4.43;;
11064;SDS011;5585;52.530;7.320;2024-02-14T00:44:52;4.97;;;4.43;;
11064;SDS011;5585;52.530;7.320;2024-02-14T00:47:18;6.70;;;5.10;;
11064;SDS011;5585;52.530;7.320;2024-02-14T00:49:45;7.57;;;4.97;;
11064;SDS011;5585;52.530;7.320;2024-02-14T00:52:11;5.90;;;5.30;;
11064;SDS011;5585;52.530;7.320;2024-02-14T00:54:39;6.37;;;5.63;;
11064;SDS011;5585;52.530;7.320;2024-02-14T00:57:05;6.70;;;6.00;;
11064;SDS011;5585;52.530;7.320;2024-02-14T00:59:32;6.60;;;6.03;;
11064;SDS011;5585;52.530;7.320;2024-02-14T01:01:58;7.03;;;6.23;;
11064;SDS011;5585;52.530;7.320;2024-02-14T01:04:25;7.97;;;6.03;;
11064;SDS011;5585;52.530;7.320;2024-02-14T01:06:51;7.77;;;6.63;;
11064;SDS011;5585;52.530;7.320;2024-02-14T01:09:18;7.63;;;6.03;;
11064;SDS011;5585;52.530;7.320;2024-02-14T01:11:46;7.03;;;6.20;;
11064;SDS011;5585;52.530;7.320;2024-02-14T01:14:13;6.73;;;6.13;;
11064;SDS011;5585;52.530;7.320;2024-02-14T01:16:43;6.70;;;5.93;;
11064;SDS011;5585;52.530;7.320;2024-02-14T01:19:09;8.10;;;6.20;;
11064;SDS011;5585;52.530;7.320;2024-02-14T01:21:36;6.33;;;5.63;;
11064;SDS011;5585;52.530;7.320;2024-02-14T01:24:03;6.43;;;5.83;;
11064;SDS011;5585;52.530;7.320;2024-02-14T01:26:30;7.03;;;6.43;;
11064;SDS011;5585;52.530;7.320;2024-02-14T01:28:58;6.50;;;5.90;;
11064;SDS011;5585;52.530;7.320;2024-02-14T01:31:26;6.13;;;5.63;;
11064;SDS011;5585;52.530;7.320;2024-02-14T01:33:52;6.10;;;5.60;;
11064;SDS011;5585;52.530;7.320;2024-02-14T01:36:19;6.37;;;5.30;;
11064;SDS011;5585;52.530;7.320;2024-02-14T01:38:46;6.30;;;5.70;;
11064;SDS011;5585;52.530;7.320;2024-02-14T01:41:12;6.63;;;5.73;;
11064;SDS011;5585;52.530;7.320;2024-02-14T01:43:39;5.90;;;5.27;;
11064;SDS011;5585;52.530;7.320;2024-02-14T01:46:07;6.10;;;5.50;;
11064;SDS011;5585;52.530;7.320;2024-02-14T01:48:34;6.47;;;5.60;;
11064;SDS011;5585;52.530;7.320;2024-02-14T01:51:00;5.97;;;5.47;;
11064;SDS011;5585;52.530;7.320;2024-02-14T01:53:27;5.83;;;5.20;;
11064;SDS011;5585;52.530;7.320;2024-02-14T01:55:55;5.60;;;5.10;;
11064;SDS011;5585;52.530;7.320;2024-02-14T01:58:22;7.10;;;5.77;;
11064;SDS011;5585;52.530;7.320;2024-02-14T02:00:49;5.27;;;4.77;;
11064;SDS011;5585;52.530;7.320;2024-02-14T02:03:16;7.47;;;5.23;;
11064;SDS011;5585;52.530;7.320;2024-02-14T02:05:43;5.70;;;5.20;;
11064;SDS011;5585;52.530;7.320;2024-02-14T02:08:09;5.40;;;5.00;;
11064;SDS011;5585;52.530;7.320;2024-02-14T02:10:36;5.00;;;4.60;;
11064;SDS011;5585;52.530;7.320;2024-02-14T02:13:03;4.80;;;4.40;;
11064;SDS011;5585;52.530;7.320;2024-02-14T02:15:30;5.20;;;4.70;;
11064;SDS011;5585;52.530;7.320;2024-02-14T02:17:56;4.93;;;4.43;;
11064;SDS011;5585;52.530;7.320;2024-02-14T02:20:26;6.30;;;4.57;;
11064;SDS011;5585;52.530;7.320;2024-02-14T02:22:54;5.07;;;4.67;;
11064;SDS011;5585;52.530;7.320;2024-02-14T02:25:20;5.17;;;4.67;;
11064;SDS011;5585;52.530;7.320;2024-02-14T02:27:50;5.20;;;4.80;;
11064;SDS011;5585;52.530;7.320;2024-02-14T02:30:17;5.87;;;4.23;;
11064;SDS011;5585;52.530;7.320;2024-02-14T02:32:43;4.47;;;4.13;;
11064;SDS011;5585;52.530;7.320;2024-02-14T02:35:09;4.53;;;4.17;;
11064;SDS011;5585;52.530;7.320;2024-02-14T02:37:36;5.43;;;4.03;;
11064;SDS011;5585;52.530;7.320;2024-02-14T02:40:04;4.40;;;4.00;;
11064;SDS011;5585;52.530;7.320;2024-02-14T02:42:32;4.00;;;3.57;;
11064;SDS011;5585;52.530;7.320;2024-02-14T02:44:59;4.57;;;4.03;;
11064;SDS011;5585;52.530;7.320;2024-02-14T02:47:27;4.23;;;3.90;;
11064;SDS011;5585;52.530;7.320;2024-02-14T02:49:53;4.27;;;3.87;;
11064;SDS011;5585;52.530;7.320;2024-02-14T02:52:20;4.60;;;4.20;;
11064;SDS011;5585;52.530;7.320;2024-02-14T02:54:46;4.57;;;4.00;;
11064;SDS011;5585;52.530;7.320;2024-02-14T02:57:14;4.67;;;4.27;;
11064;SDS011;5585;52.530;7.320;2024-02-14T02:59:41;4.83;;;4.43;;
11064;SDS011;5585;52.530;7.320;2024-02-14T03:02:09;4.60;;;3.50;;
11064;SDS011;5585;52.530;7.320;2024-02-14T03:04:37;4.90;;;4.40;;
11064;SDS011;5585;52.530;7.320;2024-02-14T03:07:03;4.07;;;3.63;;
11064;SDS011;5585;52.530;7.320;2024-02-14T03:09:31;4.43;;;4.10;;
11064;SDS011;5585;52.530;7.320;2024-02-14T03:11:58;4.53;;;3.97;;
11064;SDS011;5585;52.530;7.320;2024-02-14T03:14:27;4.40;;;4.00;;
11064;SDS011;5585;52.530;7.320;2024-02-14T03:16:54;3.77;;;3.47;;
11064;SDS011;5585;52.530;7.320;2024-02-14T03:19:24;4.23;;;3.80;;
11064;SDS011;5585;52.530;7.320;2024-02-14T03:21:52;4.03;;;3.73;;
11064;SDS011;5585;52.530;7.320;2024-02-14T03:24:18;3.93;;;3.60;;
11064;SDS011;5585;52.530;7.320;2024-02-14T03:26:45;3.53;;;3.23;;
11064;SDS011;5585;52.530;7.320;2024-02-14T03:29:11;4.40;;;3.50;;
11064;SDS011;5585;52.530;7.320;2024-02-14T03:31:39;3.40;;;3.10;;
11064;SDS011;5585;52.530;7.320;2024-02-14T03:34:08;3.73;;;3.33;;
11064;SDS011;5585;52.530;7.320;2024-02-14T03:36:36;3.70;;;3.40;;
11064;SDS011;5585;52.530;7.320;2024-02-14T03:39:03;3.30;;;3.10;;
11064;SDS011;5585;52.530;7.320;2024-02-14T03:41:30;3.20;;;2.90;;
11064;SDS011;5585;52.530;7.320;2024-02-14T03:43:56;3.60;;;3.30;;
11064;SDS011;5585;52.530;7.320;2024-02-14T03:46:25;3.50;;;3.20;;
11064;SDS011;5585;52.530;7.320;2024-02-14T03:48:54;3.30;;;3.00;;
11064;SDS011;5585;52.530;7.320;2024-02-14T03:51:22;3.37;;;3.07;;
11064;SDS011;5585;52.530;7.320;2024-02-14T03:53:49;2.70;;;2.50;;
11064;SDS011;5585;52.530;7.320;2024-02-14T03:56:16;2.93;;;2.73;;
11064;SDS011;5585;52.530;7.320;2024-02-14T03:58:42;3.40;;;3.10;;
11064;SDS011;5585;52.530;7.320;2024-02-14T04:01:09;2.97;;;2.70;;
11064;SDS011;5585;52.530;7.320;2024-02-14T04:03:35;2.80;;;2.60;;
11064;SDS011;5585;52.530;7.320;2024-02-14T04:06:03;3.17;;;2.90;;
11064;SDS011;5585;52.530;7.320;2024-02-14T04:08:30;2.93;;;2.63;;
11064;SDS011;5585;52.530;7.320;2024-02-14T04:10:57;2.80;;;2.60;;
11064;SDS011;5585;52.530;7.320;2024-02-14T04:13:24;2.60;;;2.40;;
11064;SDS011;5585;52.530;7.320;2024-02-14T04:15:50;3.07;;;2.87;;
11064;SDS011;5585;52.530;7.320;2024-02-14T04:18:17;3.00;;;2.80;;
11064;SDS011;5585;52.530;7.320;2024-02-14T04:20:43;2.70;;;2.47;;
11064;SDS011;5585;52.530;7.320;2024-02-14T04:23:11;3.30;;;3.00;;
11064;SDS011;5585;52.530;7.320;2024-02-14T04:25:38;2.73;;;2.53;;
11064;SDS011;5585;52.530;7.320;2024-02-14T04:28:05;4.30;;;2.73;;
11064;SDS011;5585;52.530;7.320;2024-02-14T04:30:33;3.20;;;2.90;;
11064;SDS011;5585;52.530;7.320;2024-02-14T04:33:01;3.17;;;2.90;;
11064;SDS011;5585;52.530;7.320;2024-02-14T04:35:28;3.20;;;2.90;;
11064;SDS011;5585;52.530;7.320;2024-02-14T04:37:54;3.00;;;2.70;;
11064;SDS011;5585;52.530;7.320;2024-02-14T04:40:22;3.70;;;3.30;;
11064;SDS011;5585;52.530;7.320;2024-02-14T04:42:48;4.03;;;3.23;;
11064;SDS011;5585;52.530;7.320;2024-02-14T04:45:15;3.27;;;2.97;;
11064;SDS011;5585;52.530;7.320;2024-02-14T04:47:41;3.27;;;3.07;;
11064;SDS011;5585;52.530;7.320;2024-02-14T04:50:08;3.43;;;3.10;;
11064;SDS011;5585;52.530;7.320;2024-02-14T04:52:35;3.23;;;2.93;;
11064;SDS011;5585;52.530;7.320;2024-02-14T04:55:01;3.27;;;2.97;;
11064;SDS011;5585;52.530;7.320;2024-02-14T04:57:30;3.13;;;2.93;;
11064;SDS011;5585;52.530;7.320;2024-02-14T04:59:57;4.27;;;2.90;;
11064;SDS011;5585;52.530;7.320;2024-02-14T05:02:23;3.70;;;3.40;;
11064;SDS011;5585;52.530;7.320;2024-02-14T05:04:50;3.30;;;3.00;;
11064;SDS011;5585;52.530;7.320;2024-02-14T05:07:16;3.30;;;3.00;;
11064;SDS011;5585;52.530;7.320;2024-02-14T05:09:43;3.00;;;2.70;;
11064;SDS011;5585;52.530;7.320;2024-02-14T05:12:10;3.57;;;3.07;;
11064;SDS011;5585;52.530;7.320;2024-02-14T05:14:38;3.37;;;3.07;;
11064;SDS011;5585;52.530;7.320;2024-02-14T05:17:05;3.40;;;3.10;;
11064;SDS011;5585;52.530;7.320;2024-02-14T05:19:31;3.67;;;3.37;;
11064;SDS011;5585;52.530;7.320;2024-02-14T05:21:58;3.30;;;3.00;;
11064;SDS011;5585;52.530;7.320;2024-02-14T05:24:24;3.13;;;2.93;;
11064;SDS011;5585;52.530;7.320;2024-02-14T05:26:52;2.93;;;2.73;;
11064;SDS011;5585;52.530;7.320;2024-02-14T05:29:18;3.50;;;3.10;;
11064;SDS011;5585;52.530;7.320;2024-02-14T05:31:47;3.27;;;3.00;;
11064;SDS011;5585;52.530;7.320;2024-02-14T05:34:14;3.27;;;2.97;;
11064;SDS011;5585;52.530;7.320;2024-02-14T05:36:41;3.60;;;3.10;;
11064;SDS011;5585;52.530;7.320;2024-02-14T05:39:07;3.37;;;3.00;;
11064;SDS011;5585;52.530;7.320;2024-02-14T05:41:34;3.57;;;3.27;;
11064;SDS011;5585;52.530;7.320;2024-02-14T05:44:01;4.23;;;3.27;;
11064;SDS011;5585;52.530;7.320;2024-02-14T05:46:28;3.93;;;3.47;;
11064;SDS011;5585;52.530;7.320;2024-02-14T05:48:55;3.90;;;3.50;;
11064;SDS011;5585;52.530;7.320;2024-02-14T05:51:22;3.60;;;3.30;;
11064;SDS011;5585;52.530;7.320;2024-02-14T05:53:48;3.20;;;3.00;;
11064;SDS011;5585;52.530;7.320;2024-02-14T05:56:15;3.50;;;3.20;;
11064;SDS011;5585;52.530;7.320;2024-02-14T05:58:41;3.30;;;3.10;;
11064;SDS011;5585;52.530;7.320;2024-02-14T06:01:09;3.70;;;3.40;;
11064;SDS011;5585;52.530;7.320;2024-02-14T06:03:35;3.73;;;3.43;;
11064;SDS011;5585;52.530;7.320;2024-02-14T06:06:03;3.97;;;3.43;;
11064;SDS011;5585;52.530;7.320;2024-02-14T06:08:30;3.27;;;2.97;;
11064;SDS011;5585;52.530;7.320;2024-02-14T06:10:56;3.60;;;3.30;;
11064;SDS011;5585;52.530;7.320;2024-02-14T06:13:22;4.23;;;3.83;;
11064;SDS011;5585;52.530;7.320;2024-02-14T06:15:49;4.00;;;3.70;;
11064;SDS011;5585;52.530;7.320;2024-02-14T06:18:15;4.70;;;4.30;;
11064;SDS011;5585;52.530;7.320;2024-02-14T06:20:42;4.60;;;4.20;;
11064;SDS011;5585;52.530;7.320;2024-02-14T06:23:10;4.67;;;4.37;;
11064;SDS011;5585;52.530;7.320;2024-02-14T06:25:36;5.00;;;4.60;;
11064;SDS011;5585;52.530;7.320;2024-02-14T06:28:03;4.70;;;4.30;;
11064;SDS011;5585;52.530;7.320;2024-02-14T06:30:29;5.27;;;4.77;;
11064;SDS011;5585;52.530;7.320;2024-02-14T06:32:56;5.40;;;4.90;;
11064;SDS011;5585;52.530;7.320;2024-02-14T06:35:25;5.70;;;5.10;;
11064;SDS011;5585;52.530;7.320;2024-02-14T06:37:52;6.17;;;5.57;;
11064;SDS011;5585;52.530;7.320;2024-02-14T06:40:19;6.67;;;6.07;;
11064;SDS011;5585;52.530;7.320;2024-02-14T06:42:46;6.50;;;5.97;;
11064;SDS011;5585;52.530;7.320;2024-02-14T06:45:14;7.23;;;6.63;;
11064;SDS011;5585;52.530;7.320;2024-02-14T06:47:40;7.53;;;6.83;;
11064;SDS011;5585;52.530;7.320;2024-02-14T06:50:07;7.53;;;6.87;;
11064;SDS011;5585;52.530;7.320;2024-02-14T06:52:34;8.57;;;7.77;;
11064;SDS011;5585;52.530;7.320;2024-02-14T06:55:00;8.60;;;7.80;;
11064;SDS011;5585;52.530;7.320;2024-02-14T06:57:30;8.83;;;7.97;;
11064;SDS011;5585;52.530;7.320;2024-02-14T06:59:56;9.17;;;8.20;;
11064;SDS011;5585;52.530;7.320;2024-02-14T09:42:55;7.10;;;6.40;;
11064;SDS011;5585;52.530;7.320;2024-02-14T09:45:24;6.97;;;6.27;;
11064;SDS011;5585;52.530;7.320;2024-02-14T09:47:51;6.57;;;5.97;;
11064;SDS011;5585;52.530;7.320;2024-02-14T09:50:17;7.43;;;6.83;;
11064;SDS011;5585;52.530;7.320;2024-02-14T09:52:45;8.13;;;6.97;;
11064;SDS011;5585;52.530;7.320;2024-02-14T09:55:13;7.97;;;7.17;;
11064;SDS011;5585;52.530;7.320;2024-02-14T09:57:41;7.57;;;6.73;;
11064;SDS011;5585;52.530;7.320;2024-02-14T10:00:09;7.73;;;7.03;;
11064;SDS011;5585;52.530;7.320;2024-02-14T10:02:36;6.87;;;6.27;;
11064;SDS011;5585;52.530;7.320;2024-02-14T10:05:03;8.00;;;7.07;;
11064;SDS011;5585;52.530;7.320;2024-02-14T10:07:29;8.20;;;7.50;;
11064;SDS011;5585;52.530;7.320;2024-02-14T10:10:05;8.07;;;7.27;;
11064;SDS011;5585;52.530;7.320;2024-02-14T10:12:31;8.60;;;7.27;;
11064;SDS011;5585;52.530;7.320;2024-02-14T10:14:58;8.00;;;7.30;;
11064;SDS011;5585;52.530;7.320;2024-02-14T10:17:26;7.97;;;7.27;;
11064;SDS011;5585;52.530;7.320;2024-02-14T10:19:55;7.53;;;6.93;;
11064;SDS011;5585;52.530;7.320;2024-02-14T10:22:22;7.40;;;6.80;;
11064;SDS011;5585;52.530;7.320;2024-02-14T10:24:48;7.63;;;6.93;;
11064;SDS011;5585;52.530;7.320;2024-02-14T10:27:15;7.37;;;6.67;;
11064;SDS011;5585;52.530;7.320;2024-02-14T10:29:41;8.70;;;7.90;;
11064;SDS011;5585;52.530;7.320;2024-02-14T10:32:08;7.43;;;6.77;;
11064;SDS011;5585;52.530;7.320;2024-02-14T10:34:37;7.33;;;6.60;;
11064;SDS011;5585;52.530;7.320;2024-02-14T10:37:05;7.97;;;7.27;;
11064;SDS011;5585;52.530;7.320;2024-02-14T10:39:31;8.17;;;7.37;;
11064;SDS011;5585;52.530;7.320;2024-02-14T10:41:58;8.63;;;7.83;;
11064;SDS011;5585;52.530;7.320;2024-02-14T10:44:26;8.10;;;7.30;;
11064;SDS011;5585;52.530;7.320;2024-02-14T10:46:52;7.90;;;7.17;;
11064;SDS011;5585;52.530;7.320;2024-02-14T10:49:19;8.50;;;7.70;;
11064;SDS011;5585;52.530;7.320;2024-02-14T10:51:47;8.53;;;7.67;;
11064;SDS011;5585;52.530;7.320;2024-02-14T10:54:14;7.57;;;6.30;;
11064;SDS011;5585;52.530;7.320;2024-02-14T10:56:43;7.50;;;6.80;;
11064;SDS011;5585;52.530;7.320;2024-02-14T10:59:12;7.70;;;7.00;;
11064;SDS011;5585;52.530;7.320;2024-02-14T11:01:39;7.40;;;6.70;;
11064;SDS011;5585;52.530;7.320;2024-02-14T11:04:06;7.57;;;6.87;;
11064;SDS011;5585;52.530;7.320;2024-02-14T11:06:43;6.90;;;6.20;;
11064;SDS011;5585;52.530;7.320;2024-02-14T11:09:11;7.90;;;6.00;;
11064;SDS011;5585;52.530;7.320;2024-02-14T11:11:40;6.80;;;5.97;;
11064;SDS011;5585;52.530;7.320;2024-02-14T11:14:06;6.00;;;5.50;;
11064;SDS011;5585;52.530;7.320;2024-02-14T11:16:33;6.50;;;5.90;;
11064;SDS011;5585;52.530;7.320;2024-02-14T11:19:07;6.30;;;5.70;;
11064;SDS011;5585;52.530;7.320;2024-02-14T11:21:35;6.27;;;5.30;;
11064;SDS011;5585;52.530;7.320;2024-02-14T11:24:04;6.00;;;5.50;;
11064;SDS011;5585;52.530;7.320;2024-02-14T11:26:38;5.90;;;5.40;;
11064;SDS011;5585;52.530;7.320;2024-02-14T11:29:04;6.20;;;5.70;;
11064;SDS011;5585;52.530;7.320;2024-02-14T11:31:32;6.60;;;5.33;;
11064;SDS011;5585;52.530;7.320;2024-02-14T11:34:02;6.03;;;5.43;;
11064;SDS011;5585;52.530;7.320;2024-02-14T11:36:29;6.00;;;5.50;;
11064;SDS011;5585;52.530;7.320;2024-02-14T11:38:55;6.20;;;5.70;;
11064;SDS011;5585;52.530;7.320;2024-02-14T11:41:22;6.60;;;5.93;;
11064;SDS011;5585;52.530;7.320;2024-02-14T11:43:52;6.07;;;5.23;;
11064;SDS011;5585;52.530;7.320;2024-02-14T11:46:18;5.80;;;5.10;;
11064;SDS011;5585;52.530;7.320;2024-02-14T11:48:45;5.80;;;5.30;;
11064;SDS011;5585;52.530;7.320;2024-02-14T11:51:11;5.90;;;5.40;;
11064;SDS011;5585;52.530;7.320;2024-02-14T11:53:38;5.53;;;5.03;;
11064;SDS011;5585;52.530;7.320;2024-02-14T11:56:06;5.83;;;5.33;;
11064;SDS011;5585;52.530;7.320;2024-02-14T11:58:32;5.60;;;5.13;;
11064;SDS011;5585;52.530;7.320;2024-02-14T12:01:02;5.13;;;4.70;;
11064;SDS011;5585;52.530;7.320;2024-02-14T12:03:29;5.33;;;4.83;;
11064;SDS011;5585;52.530;7.320;2024-02-14T12:05:56;5.93;;;5.43;;
11064;SDS011;5585;52.530;7.320;2024-02-14T12:08:23;5.30;;;4.90;;
11064;SDS011;5585;52.530;7.320;2024-02-14T12:10:49;5.03;;;4.53;;
11064;SDS011;5585;52.530;7.320;2024-02-14T12:13:17;5.40;;;4.90;;
11064;SDS011;5585;52.530;7.320;2024-02-14T12:15:44;5.07;;;4.67;;
11064;SDS011;5585;52.530;7.320;2024-02-14T12:18:12;4.47;;;4.07;;
11064;SDS011;5585;52.530;7.320;2024-02-14T12:20:39;4.80;;;4.40;;
11064;SDS011;5585;52.530;7.320;2024-02-14T12:23:06;4.63;;;4.27;;
11064;SDS011;5585;52.530;7.320;2024-02-14T12:25:33;5.07;;;4.67;;
11064;SDS011;5585;52.530;7.320;2024-02-14T12:27:59;5.53;;;5.03;;
11064;SDS011;5585;52.530;7.320;2024-02-14T12:30:28;5.07;;;4.57;;
11064;SDS011;5585;52.530;7.320;2024-02-14T12:33:08;5.67;;;5.17;;
11064;SDS011;5585;52.530;7.320;2024-02-14T12:35:37;6.03;;;5.43;;
11064;SDS011;5585;52.530;7.320;2024-02-14T12:38:07;5.60;;;5.07;;
11064;SDS011;5585;52.530;7.320;2024-02-14T12:40:34;5.67;;;5.17;;
11064;SDS011;5585;52.530;7.320;2024-02-14T12:43:01;6.20;;;5.70;;
11064;SDS011;5585;52.530;7.320;2024-02-14T12:45:27;6.07;;;5.47;;
11064;SDS011;5585;52.530;7.320;2024-02-14T12:47:54;6.73;;;6.10;;
11064;SDS011;5585;52.530;7.320;2024-02-14T12:50:20;6.53;;;5.93;;
11064;SDS011;5585;52.530;7.320;2024-02-14T12:52:48;6.60;;;6.00;;
11064;SDS011;5585;52.530;7.320;2024-02-14T12:55:15;7.70;;;7.00;;
11064;SDS011;5585;52.530;7.320;2024-02-14T12:57:41;7.87;;;7.20;;
11064;SDS011;5585;52.530;7.320;2024-02-14T13:00:08;7.63;;;6.93;;
11064;SDS011;5585;52.530;7.320;2024-02-14T13:02:35;7.80;;;7.07;;
11064;SDS011;5585;52.530;7.320;2024-02-14T13:05:02;8.40;;;7.60;;
11064;SDS011;5585;52.530;7.320;2024-02-14T13:07:29;8.00;;;7.30;;
11064;SDS011;5585;52.530;7.320;2024-02-14T13:09:57;8.90;;;7.77;;
11064;SDS011;5585;52.530;7.320;2024-02-14T13:12:24;8.70;;;7.57;;
11064;SDS011;5585;52.530;7.320;2024-02-14T13:14:50;9.73;;;7.47;;
11064;SDS011;5585;52.530;7.320;2024-02-14T13:17:17;9.20;;;8.30;;
11064;SDS011;5585;52.530;7.320;2024-02-14T13:19:43;8.90;;;8.00;;
11064;SDS011;5585;52.530;7.320;2024-02-14T13:22:10;8.70;;;7.80;;
11064;SDS011;5585;52.530;7.320;2024-02-14T13:24:37;9.53;;;8.47;;
11064;SDS011;5585;52.530;7.320;2024-02-14T13:27:05;8.20;;;7.40;;
11064;SDS011;5585;52.530;7.320;2024-02-14T13:29:31;9.20;;;8.33;;
11064;SDS011;5585;52.530;7.320;2024-02-14T13:31:58;9.47;;;8.13;;
11064;SDS011;5585;52.530;7.320;2024-02-14T13:34:25;9.30;;;7.80;;
11064;SDS011;5585;52.530;7.320;2024-02-14T13:36:52;9.33;;;8.47;;
11064;SDS011;5585;52.530;7.320;2024-02-14T13:39:19;8.30;;;7.50;;
11064;SDS011;5585;52.530;7.320;2024-02-14T13:41:45;8.50;;;7.70;;
11064;SDS011;5585;52.530;7.320;2024-02-14T13:44:14;8.63;;;7.60;;
11064;SDS011;5585;52.530;7.320;2024-02-14T13:46:43;8.87;;;7.97;;
11064;SDS011;5585;52.530;7.320;2024-02-14T13:49:10;8.50;;;7.57;;
11064;SDS011;5585;52.530;7.320;2024-02-14T13:51:37;8.80;;;7.90;;
11064;SDS011;5585;52.530;7.320;2024-02-14T13:54:03;9.63;;;8.63;;
11064;SDS011;5585;52.530;7.320;2024-02-14T13:56:31;8.17;;;7.37;;
11064;SDS011;5585;52.530;7.320;2024-02-14T13:58:57;8.37;;;7.57;;
11064;SDS011;5585;52.530;7.320;2024-02-14T14:01:25;8.00;;;7.30;;
11064;SDS011;5585;52.530;7.320;2024-02-14T14:03:52;8.40;;;7.50;;
11064;SDS011;5585;52.530;7.320;2024-02-14T14:06:19;7.43;;;6.70;;
11064;SDS011;5585;52.530;7.320;2024-02-14T14:08:49;7.47;;;6.87;;
11064;SDS011;5585;52.530;7.320;2024-02-14T14:11:15;7.40;;;6.70;;
11064;SDS011;5585;52.530;7.320;2024-02-14T14:13:42;7.97;;;7.17;;
11064;SDS011;5585;52.530;7.320;2024-02-14T14:16:08;7.83;;;6.93;;
11064;SDS011;5585;52.530;7.320;2024-02-14T14:18:37;7.30;;;6.63;;
11064;SDS011;5585;52.530;7.320;2024-02-14T14:21:04;7.63;;;6.93;;
11064;SDS011;5585;52.530;7.320;2024-02-14T14:23:31;7.97;;;7.13;;
11064;SDS011;5585;52.530;7.320;2024-02-14T14:25:58;7.70;;;6.90;;
11064;SDS011;5585;52.530;7.320;2024-02-14T14:28:25;8.20;;;6.90;;
11064;SDS011;5585;52.530;7.320;2024-02-14T14:30:52;8.77;;;6.40;;
11064;SDS011;5585;52.530;7.320;2024-02-14T14:33:19;7.47;;;6.77;;
11064;SDS011;5585;52.530;7.320;2024-02-14T14:35:47;6.90;;;6.20;;
11064;SDS011;5585;52.530;7.320;2024-02-14T14:38:15;6.83;;;6.23;;
11064;SDS011;5585;52.530;7.320;2024-02-14T14:40:42;6.17;;;5.57;;
11064;SDS011;5585;52.530;7.320;2024-02-14T14:43:10;6.33;;;5.73;;
11064;SDS011;5585;52.530;7.320;2024-02-14T14:45:36;5.73;;;5.20;;
11064;SDS011;5585;52.530;7.320;2024-02-14T14:48:03;6.53;;;6.00;;
11064;SDS011;5585;52.530;7.320;2024-02-14T14:50:30;7.33;;;5.77;;
11064;SDS011;5585;52.530;7.320;2024-02-14T14:52:58;7.30;;;5.30;;
11064;SDS011;5585;52.530;7.320;2024-02-14T14:55:25;5.80;;;5.30;;
11064;SDS011;5585;52.530;7.320;2024-02-14T14:57:53;7.47;;;5.07;;
11064;SDS011;5585;52.530;7.320;2024-02-14T15:00:21;5.23;;;4.77;;
11064;SDS011;5585;52.530;7.320;2024-02-14T15:02:48;4.77;;;4.37;;
11064;SDS011;5585;52.530;7.320;2024-02-14T15:05:15;5.53;;;5.03;;
11064;SDS011;5585;52.530;7.320;2024-02-14T15:07:42;5.87;;;4.40;;
11064;SDS011;5585;52.530;7.320;2024-02-14T15:10:10;5.00;;;4.60;;
11064;SDS011;5585;52.530;7.320;2024-02-14T15:12:37;5.03;;;3.93;;
11064;SDS011;5585;52.530;7.320;2024-02-14T15:15:04;4.10;;;3.70;;
11064;SDS011;5585;52.530;7.320;2024-02-14T15:17:31;3.90;;;3.60;;
11064;SDS011;5585;52.530;7.320;2024-02-14T15:19:57;4.03;;;3.67;;
11064;SDS011;5585;52.530;7.320;2024-02-14T15:22:23;3.70;;;3.40;;
11064;SDS011;5585;52.530;7.320;2024-02-14T15:24:53;4.03;;;3.70;;
11064;SDS011;5585;52.530;7.320;2024-02-14T15:27:20;3.90;;;3.50;;
11064;SDS011;5585;52.530;7.320;2024-02-14T15:29:49;3.73;;;3.20;;
11064;SDS011;5585;52.530;7.320;2024-02-14T15:32:32;3.00;;;2.80;;
11064;SDS011;5585;52.530;7.320;2024-02-14T15:35:16;3.23;;;2.93;;
11064;SDS011;5585;52.530;7.320;2024-02-14T15:37:42;2.97;;;2.77;;
11064;SDS011;5585;52.530;7.320;2024-02-14T15:40:10;2.70;;;2.50;;
11064;SDS011;5585;52.530;7.320;2024-02-14T15:42:38;2.57;;;2.37;;
11064;SDS011;5585;52.530;7.320;2024-02-14T15:45:05;2.60;;;2.40;;
11064;SDS011;5585;52.530;7.320;2024-02-14T15:47:32;2.60;;;2.40;;
11064;SDS011;5585;52.530;7.320;2024-02-14T15:49:58;2.60;;;2.40;;
11064;SDS011;5585;52.530;7.320;2024-02-14T15:52:25;2.40;;;2.20;;
11064;SDS011;5585;52.530;7.320;2024-02-14T15:54:51;2.87;;;2.47;;
11064;SDS011;5585;52.530;7.320;2024-02-14T15:57:19;2.50;;;2.30;;
11064;SDS011;5585;52.530;7.320;2024-02-14T15:59:47;2.23;;;2.13;;
11064;SDS011;5585;52.530;7.320;2024-02-14T16:02:13;2.77;;;2.00;;
11064;SDS011;5585;52.530;7.320;2024-02-14T16:04:40;2.10;;;1.90;;
11064;SDS011;5585;52.530;7.320;2024-02-14T16:07:06;4.97;;;1.97;;
11064;SDS011;5585;52.530;7.320;2024-02-14T16:09:33;1.80;;;1.70;;
11064;SDS011;5585;52.530;7.320;2024-02-14T16:11:59;3.33;;;2.20;;
11064;SDS011;5585;52.530;7.320;2024-02-14T16:14:26;2.20;;;1.83;;
11064;SDS011;5585;52.530;7.320;2024-02-14T16:16:54;1.93;;;1.83;;
11064;SDS011;5585;52.530;7.320;2024-02-14T16:19:20;1.80;;;1.70;;
11064;SDS011;5585;52.530;7.320;2024-02-14T16:21:46;1.97;;;1.87;;
11064;SDS011;5585;52.530;7.320;2024-02-14T16:24:13;2.20;;;2.03;;
11064;SDS011;5585;52.530;7.320;2024-02-14T16:26:40;2.60;;;2.40;;
11064;SDS011;5585;52.530;7.320;2024-02-14T16:29:07;2.17;;;2.03;;
11064;SDS011;5585;52.530;7.320;2024-02-14T16:31:33;2.03;;;1.93;;
11064;SDS011;5585;52.530;7.320;2024-02-14T16:34:01;2.70;;;2.50;;
11064;SDS011;5585;52.530;7.320;2024-02-14T16:36:28;2.77;;;1.80;;
11064;SDS011;5585;52.530;7.320;2024-02-14T16:38:54;2.17;;;1.93;;
11064;SDS011;5585;52.530;7.320;2024-02-14T16:41:21;2.00;;;1.90;;
11064;SDS011;5585;52.530;7.320;2024-02-14T16:43:47;2.47;;;2.27;;
11064;SDS011;5585;52.530;7.320;2024-02-14T16:46:13;2.90;;;2.00;;
11064;SDS011;5585;52.530;7.320;2024-02-14T16:48:40;2.00;;;1.90;;
11064;SDS011;5585;52.530;7.320;2024-02-14T16:51:08;2.37;;;2.17;;
11064;SDS011;5585;52.530;7.320;2024-02-14T16:53:38;2.67;;;2.47;;
11064;SDS011;5585;52.530;7.320;2024-02-14T16:56:05;3.07;;;2.80;;
11064;SDS011;5585;52.530;7.320;2024-02-14T16:58:32;3.03;;;2.83;;
11064;SDS011;5585;52.530;7.320;2024-02-14T17:00:59;3.20;;;3.00;;
11064;SDS011;5585;52.530;7.320;2024-02-14T17:03:25;3.07;;;2.87;;
11064;SDS011;5585;52.530;7.320;2024-02-14T17:05:52;2.63;;;2.43;;
11064;SDS011;5585;52.530;7.320;2024-02-14T17:08:20;3.10;;;2.80;;
11064;SDS011;5585;52.530;7.320;2024-02-14T17:10:46;3.00;;;2.80;;
11064;SDS011;5585;52.530;7.320;2024-02-14T17:36:36;4.43;;;4.13;;
11064;SDS011;5585;52.530;7.320;2024-02-14T17:39:03;5.00;;;4.60;;
11064;SDS011;5585;52.530;7.320;2024-02-14T17:41:30;4.73;;;4.40;;
11064;SDS011;5585;52.530;7.320;2024-02-14T17:43:58;4.57;;;4.17;;
11064;SDS011;5585;52.530;7.320;2024-02-14T17:46:26;4.33;;;4.03;;
11064;SDS011;5585;52.530;7.320;2024-02-14T17:48:53;5.37;;;4.97;;
11064;SDS011;5585;52.530;7.320;2024-02-14T17:58:49;6.23;;;5.73;;
11064;SDS011;5585;52.530;7.320;2024-02-14T18:01:14;5.60;;;5.10;;
11064;SDS011;5585;52.530;7.320;2024-02-14T18:03:40;7.07;;;6.40;;
11064;SDS011;5585;52.530;7.320;2024-02-14T18:06:06;7.70;;;7.00;;
11064;SDS011;5585;52.530;7.320;2024-02-14T18:08:33;10.00;;;9.10;;
11064;SDS011;5585;52.530;7.320;2024-02-14T18:10:59;9.33;;;8.43;;